Time;durP1;ratioP1;P1;durP2;ratioP2;P2;SDS_P1;SDS_P2;PMS_P1;PMS_P2;Temp;Humidity;BMP_temperature;BMP_pressure;BME280_temperature;BME280_humidity;BME280_pressure;Samples;Min_cycle;Max_cycle;Signal;HPM_P1;HPM_P2
2022/05/28 00:00:07;;;;;;;2.75;2.3;;;;;;;14.17;78.47168;95610.74;;;;
2022/05/28 00:01:09;;;;;;;2.75;2.3;;;;;;;14.17;78.47168;95610.74;;;;
2022/05/28 00:02:11;;;;;;;2.55;2;;;;;;;13.97;79.24902;95589.36;;;;
2022/05/28 00:03:12;;;;;;;2.55;2;;;;;;;13.97;79.24902;95589.36;;;;
2022/05/28 00:04:15;;;;;;;2.55;2;;;;;;;13.97;79.24902;95589.36;;;;
2022/05/28 00:05:15;;;;;;;2.55;2;;;;;;;13.97;79.24902;95589.36;;;;
2022/05/28 00:06:16;;;;;;;2.55;2;;;;;;;13.97;79.24902;95589.36;;;;
2022/05/28 00:07:19;;;;;;;2.55;2;;;;;;;13.97;79.24902;95589.36;;;;
2022/05/28 00:08:19;;;;;;;2.55;2;;;;;;;13.97;79.24902;95589.36;;;;
2022/05/28 00:09:20;;;;;;;2.55;2;;;;;;;13.97;79.24902;95589.36;;;;
2022/05/28 00:10:20;;;;;;;2.55;2;;;;;;;13.97;79.24902;95589.36;;;;
2022/05/28 00:11:21;;;;;;;2.55;2;;;;;;;13.97;79.24902;95589.36;;;;
2022/05/28 00:12:25;;;;;;;2.55;2;;;;;;;13.97;79.24902;95589.36;;;;
2022/05/28 00:13:28;;;;;;;2.2;2;;;;;;;13.78;79.35352;95592.65;;;;
2022/05/28 00:14:29;;;;;;;2.2;2;;;;;;;13.78;79.35352;95592.65;;;;
2022/05/28 00:15:29;;;;;;;2.2;2;;;;;;;13.78;79.35352;95592.65;;;;
2022/05/28 00:16:30;;;;;;;2.2;2;;;;;;;13.78;79.35352;95592.65;;;;
2022/05/28 00:17:31;;;;;;;2.2;2;;;;;;;13.78;79.35352;95592.65;;;;
2022/05/28 00:18:31;;;;;;;2.2;2;;;;;;;13.78;79.35352;95592.65;;;;
2022/05/28 00:19:32;;;;;;;2.2;2;;;;;;;13.78;79.35352;95592.65;;;;
2022/05/28 00:20:32;;;;;;;2.2;2;;;;;;;13.78;79.35352;95592.65;;;;
2022/05/28 00:21:33;;;;;;;2.2;2;;;;;;;13.78;79.35352;95592.65;;;;
2022/05/28 00:22:35;;;;;;;2.2;2;;;;;;;13.78;79.35352;95592.65;;;;
2022/05/28 00:23:37;;;;;;;2.35;2.15;;;;;;;13.56;79.55273;95588.44;;;;
2022/05/28 00:24:39;;;;;;;2.35;2.15;;;;;;;13.56;79.55273;95588.44;;;;
2022/05/28 00:25:39;;;;;;;2.35;2.15;;;;;;;13.56;79.55273;95588.44;;;;
2022/05/28 00:26:41;;;;;;;2.35;2.15;;;;;;;13.56;79.55273;95588.44;;;;
2022/05/28 00:27:42;;;;;;;2.35;2.15;;;;;;;13.56;79.55273;95588.44;;;;
2022/05/28 00:28:42;;;;;;;2.35;2.15;;;;;;;13.56;79.55273;95588.44;;;;
2022/05/28 00:29:43;;;;;;;2.35;2.15;;;;;;;13.56;79.55273;95588.44;;;;
2022/05/28 00:30:43;;;;;;;2.35;2.15;;;;;;;13.56;79.55273;95588.44;;;;
2022/05/28 00:31:44;;;;;;;2.35;2.15;;;;;;;13.56;79.55273;95588.44;;;;
2022/05/28 00:32:44;;;;;;;2.35;2.15;;;;;;;13.56;79.55273;95588.44;;;;
2022/05/28 00:33:45;;;;;;;2.35;2.15;;;;;;;13.56;79.55273;95588.44;;;;
2022/05/28 00:34:46;;;;;;;3.6;2.6;;;;;;;13.23;79.91504;95573.28;;;;
2022/05/28 00:35:46;;;;;;;3.6;2.6;;;;;;;13.23;79.91504;95573.28;;;;
2022/05/28 00:36:47;;;;;;;3.6;2.6;;;;;;;13.23;79.91504;95573.28;;;;
2022/05/28 00:37:47;;;;;;;3.6;2.6;;;;;;;13.23;79.91504;95573.28;;;;
2022/05/28 00:38:48;;;;;;;3.6;2.6;;;;;;;13.23;79.91504;95573.28;;;;
2022/05/28 00:39:49;;;;;;;3.6;2.6;;;;;;;13.23;79.91504;95573.28;;;;
2022/05/28 00:40:49;;;;;;;3.6;2.6;;;;;;;13.23;79.91504;95573.28;;;;
2022/05/28 00:41:55;;;;;;;3.6;2.6;;;;;;;13.23;79.91504;95573.28;;;;
2022/05/28 00:42:55;;;;;;;3.6;2.6;;;;;;;13.23;79.91504;95573.28;;;;
2022/05/28 00:43:57;;;;;;;3.6;2.6;;;;;;;13.23;79.91504;95573.28;;;;
2022/05/28 00:44:58;;;;;;;4.3;2.5;;;;;;;12.97;80.43848;95574.06;;;;
2022/05/28 00:45:58;;;;;;;4.3;2.5;;;;;;;12.97;80.43848;95574.06;;;;
2022/05/28 00:47:04;;;;;;;4.3;2.5;;;;;;;12.97;80.43848;95574.06;;;;
2022/05/28 00:48:04;;;;;;;4.3;2.5;;;;;;;12.97;80.43848;95574.06;;;;
2022/05/28 00:49:06;;;;;;;4.3;2.5;;;;;;;12.97;80.43848;95574.06;;;;
2022/05/28 00:50:14;;;;;;;4.3;2.5;;;;;;;12.97;80.43848;95574.06;;;;
2022/05/28 00:51:16;;;;;;;4.3;2.5;;;;;;;12.97;80.43848;95574.06;;;;
2022/05/28 00:52:21;;;;;;;4.3;2.5;;;;;;;12.97;80.43848;95574.06;;;;
2022/05/28 00:53:24;;;;;;;4.3;2.5;;;;;;;12.97;80.43848;95574.06;;;;
2022/05/28 00:54:24;;;;;;;4.3;2.5;;;;;;;12.97;80.43848;95574.06;;;;
2022/05/28 00:55:27;;;;;;;2.6;2.4;;;;;;;12.67;80.82813;95563.72;;;;
2022/05/28 00:56:32;;;;;;;2.6;2.4;;;;;;;12.67;80.82813;95563.72;;;;
2022/05/28 00:57:32;;;;;;;2.6;2.4;;;;;;;12.67;80.82813;95563.72;;;;
2022/05/28 00:58:33;;;;;;;2.6;2.4;;;;;;;12.67;80.82813;95563.72;;;;
2022/05/28 00:59:34;;;;;;;2.6;2.4;;;;;;;12.67;80.82813;95563.72;;;;
2022/05/28 01:00:35;;;;;;;2.6;2.4;;;;;;;12.67;80.82813;95563.72;;;;
2022/05/28 01:01:37;;;;;;;2.6;2.4;;;;;;;12.67;80.82813;95563.72;;;;
2022/05/28 01:02:40;;;;;;;2.6;2.4;;;;;;;12.67;80.82813;95563.72;;;;
2022/05/28 01:03:49;;;;;;;2.6;2.4;;;;;;;12.67;80.82813;95563.72;;;;
2022/05/28 01:05:02;;;;;;;2.6;2.4;;;;;;;12.67;80.82813;95563.72;;;;
2022/05/28 01:06:11;;;;;;;2.5;2.3;;;;;;;12.51;81.25293;95564.65;;;;
2022/05/28 01:07:19;;;;;;;2.5;2.3;;;;;;;12.51;81.25293;95564.65;;;;
2022/05/28 01:08:30;;;;;;;2.5;2.3;;;;;;;12.51;81.25293;95564.65;;;;
2022/05/28 01:09:36;;;;;;;2.5;2.3;;;;;;;12.51;81.25293;95564.65;;;;
2022/05/28 01:10:44;;;;;;;2.5;2.3;;;;;;;12.51;81.25293;95564.65;;;;
2022/05/28 01:11:53;;;;;;;2.5;2.3;;;;;;;12.51;81.25293;95564.65;;;;
2022/05/28 01:13:03;;;;;;;2.5;2.3;;;;;;;12.51;81.25293;95564.65;;;;
2022/05/28 01:14:08;;;;;;;2.5;2.3;;;;;;;12.51;81.25293;95564.65;;;;
2022/05/28 01:15:15;;;;;;;2.5;2.3;;;;;;;12.51;81.25293;95564.65;;;;
2022/05/28 01:16:20;;;;;;;2.5;2.3;;;;;;;12.51;81.25293;95564.65;;;;
2022/05/28 01:17:25;;;;;;;2.750001;2.45;;;;;;;12.45;81.48926;95549.73;;;;
2022/05/28 01:18:31;;;;;;;2.750001;2.45;;;;;;;12.45;81.48926;95549.73;;;;
2022/05/28 01:19:38;;;;;;;2.750001;2.45;;;;;;;12.45;81.48926;95549.73;;;;
2022/05/28 01:20:47;;;;;;;2.750001;2.45;;;;;;;12.45;81.48926;95549.73;;;;
2022/05/28 01:21:53;;;;;;;2.750001;2.45;;;;;;;12.45;81.48926;95549.73;;;;
2022/05/28 01:23:07;;;;;;;2.750001;2.45;;;;;;;12.45;81.48926;95549.73;;;;
2022/05/28 01:24:21;;;;;;;2.750001;2.45;;;;;;;12.45;81.48926;95549.73;;;;
2022/05/28 01:25:31;;;;;;;2.750001;2.45;;;;;;;12.45;81.48926;95549.73;;;;
2022/05/28 01:26:43;;;;;;;2.750001;2.45;;;;;;;12.45;81.48926;95549.73;;;;
2022/05/28 01:27:52;;;;;;;3.1;2.5;;;;;;;12.53;81.7959;95545.36;;;;
2022/05/28 01:28:58;;;;;;;3.1;2.5;;;;;;;12.53;81.7959;95545.36;;;;
2022/05/28 01:30:04;;;;;;;3.1;2.5;;;;;;;12.53;81.7959;95545.36;;;;
2022/05/28 01:31:09;;;;;;;3.1;2.5;;;;;;;12.53;81.7959;95545.36;;;;
2022/05/28 01:32:12;;;;;;;3.1;2.5;;;;;;;12.53;81.7959;95545.36;;;;
2022/05/28 01:33:14;;;;;;;3.1;2.5;;;;;;;12.53;81.7959;95545.36;;;;
2022/05/28 01:34:17;;;;;;;3.1;2.5;;;;;;;12.53;81.7959;95545.36;;;;
2022/05/28 01:35:19;;;;;;;3.1;2.5;;;;;;;12.53;81.7959;95545.36;;;;
2022/05/28 01:36:22;;;;;;;3.1;2.5;;;;;;;12.53;81.7959;95545.36;;;;
2022/05/28 01:37:24;;;;;;;3.1;2.5;;;;;;;12.53;81.7959;95545.36;;;;
2022/05/28 01:38:26;;;;;;;2.75;2.55;;;;;;;12.67;81.91699;95540.77;;;;
2022/05/28 01:39:28;;;;;;;2.75;2.55;;;;;;;12.67;81.91699;95540.77;;;;
2022/05/28 01:40:29;;;;;;;2.75;2.55;;;;;;;12.67;81.91699;95540.77;;;;
2022/05/28 01:41:32;;;;;;;2.75;2.55;;;;;;;12.67;81.91699;95540.77;;;;
2022/05/28 01:42:34;;;;;;;2.75;2.55;;;;;;;12.67;81.91699;95540.77;;;;
2022/05/28 01:43:40;;;;;;;2.75;2.55;;;;;;;12.67;81.91699;95540.77;;;;
2022/05/28 01:44:45;;;;;;;2.75;2.55;;;;;;;12.67;81.91699;95540.77;;;;
2022/05/28 01:45:49;;;;;;;2.75;2.55;;;;;;;12.67;81.91699;95540.77;;;;
2022/05/28 01:46:50;;;;;;;2.75;2.55;;;;;;;12.67;81.91699;95540.77;;;;
2022/05/28 01:47:52;;;;;;;2.75;2.55;;;;;;;12.67;81.91699;95540.77;;;;
2022/05/28 01:48:56;;;;;;;2.6;2.4;;;;;;;12.91;82.13379;95536.44;;;;
2022/05/28 01:49:58;;;;;;;2.6;2.4;;;;;;;12.91;82.13379;95536.44;;;;
2022/05/28 01:51:01;;;;;;;2.6;2.4;;;;;;;12.91;82.13379;95536.44;;;;
2022/05/28 01:52:03;;;;;;;2.6;2.4;;;;;;;12.91;82.13379;95536.44;;;;
2022/05/28 01:53:05;;;;;;;2.6;2.4;;;;;;;12.91;82.13379;95536.44;;;;
2022/05/28 01:54:11;;;;;;;2.6;2.4;;;;;;;12.91;82.13379;95536.44;;;;
2022/05/28 01:55:16;;;;;;;2.6;2.4;;;;;;;12.91;82.13379;95536.44;;;;
2022/05/28 01:56:19;;;;;;;2.6;2.4;;;;;;;12.91;82.13379;95536.44;;;;
2022/05/28 01:57:19;;;;;;;2.6;2.4;;;;;;;12.91;82.13379;95536.44;;;;
2022/05/28 01:58:20;;;;;;;2.6;2.4;;;;;;;12.91;82.13379;95536.44;;;;
2022/05/28 01:59:20;;;;;;;2.6;2.4;;;;;;;12.91;82.13379;95536.44;;;;
2022/05/28 02:00:23;;;;;;;2.9;2.65;;;;;;;13.01;82.04492;95543.41;;;;
2022/05/28 02:01:24;;;;;;;2.9;2.65;;;;;;;13.01;82.04492;95543.41;;;;
2022/05/28 02:02:25;;;;;;;2.9;2.65;;;;;;;13.01;82.04492;95543.41;;;;
2022/05/28 02:03:26;;;;;;;2.9;2.65;;;;;;;13.01;82.04492;95543.41;;;;
2022/05/28 02:04:30;;;;;;;2.9;2.65;;;;;;;13.01;82.04492;95543.41;;;;
2022/05/28 02:05:31;;;;;;;2.9;2.65;;;;;;;13.01;82.04492;95543.41;;;;
2022/05/28 02:06:32;;;;;;;2.9;2.65;;;;;;;13.01;82.04492;95543.41;;;;
2022/05/28 02:07:33;;;;;;;2.9;2.65;;;;;;;13.01;82.04492;95543.41;;;;
2022/05/28 02:08:35;;;;;;;2.9;2.65;;;;;;;13.01;82.04492;95543.41;;;;
2022/05/28 02:09:38;;;;;;;2.9;2.65;;;;;;;13.01;82.04492;95543.41;;;;
2022/05/28 02:10:43;;;;;;;3.349999;2.8;;;;;;;13.17;82.12012;95530.78;;;;
2022/05/28 02:11:52;;;;;;;3.349999;2.8;;;;;;;13.17;82.12012;95530.78;;;;
2022/05/28 02:13:05;;;;;;;3.349999;2.8;;;;;;;13.17;82.12012;95530.78;;;;
2022/05/28 02:14:12;;;;;;;3.349999;2.8;;;;;;;13.17;82.12012;95530.78;;;;
2022/05/28 02:15:21;;;;;;;3.349999;2.8;;;;;;;13.17;82.12012;95530.78;;;;
2022/05/28 02:16:34;;;;;;;3.349999;2.8;;;;;;;13.17;82.12012;95530.78;;;;
2022/05/28 02:17:46;;;;;;;3.349999;2.8;;;;;;;13.17;82.12012;95530.78;;;;
2022/05/28 02:18:50;;;;;;;3.349999;2.8;;;;;;;13.17;82.12012;95530.78;;;;
2022/05/28 02:19:57;;;;;;;3.349999;2.8;;;;;;;13.17;82.12012;95530.78;;;;
2022/05/28 02:21:02;;;;;;;3.25;2.95;;;;;;;13.21;82.05078;95523.58;;;;
2022/05/28 02:22:07;;;;;;;3.25;2.95;;;;;;;13.21;82.05078;95523.58;;;;
2022/05/28 02:23:16;;;;;;;3.25;2.95;;;;;;;13.21;82.05078;95523.58;;;;
2022/05/28 02:24:24;;;;;;;3.25;2.95;;;;;;;13.21;82.05078;95523.58;;;;
2022/05/28 02:25:30;;;;;;;3.25;2.95;;;;;;;13.21;82.05078;95523.58;;;;
2022/05/28 02:26:42;;;;;;;3.25;2.95;;;;;;;13.21;82.05078;95523.58;;;;
2022/05/28 02:27:46;;;;;;;3.25;2.95;;;;;;;13.21;82.05078;95523.58;;;;
2022/05/28 02:28:49;;;;;;;3.25;2.95;;;;;;;13.21;82.05078;95523.58;;;;
2022/05/28 02:29:50;;;;;;;3.25;2.95;;;;;;;13.21;82.05078;95523.58;;;;
2022/05/28 02:30:51;;;;;;;3.25;2.95;;;;;;;13.21;82.05078;95523.58;;;;
2022/05/28 02:31:54;;;;;;;3.8;3.1;;;;;;;13.27;82.08105;95520.15;;;;
2022/05/28 02:32:54;;;;;;;3.8;3.1;;;;;;;13.27;82.08105;95520.15;;;;
2022/05/28 02:34:00;;;;;;;3.8;3.1;;;;;;;13.27;82.08105;95520.15;;;;
2022/05/28 02:35:01;;;;;;;3.8;3.1;;;;;;;13.27;82.08105;95520.15;;;;
2022/05/28 02:36:02;;;;;;;3.8;3.1;;;;;;;13.27;82.08105;95520.15;;;;
2022/05/28 02:37:03;;;;;;;3.8;3.1;;;;;;;13.27;82.08105;95520.15;;;;
2022/05/28 02:38:04;;;;;;;3.8;3.1;;;;;;;13.27;82.08105;95520.15;;;;
2022/05/28 02:39:05;;;;;;;3.8;3.1;;;;;;;13.27;82.08105;95520.15;;;;
2022/05/28 02:40:05;;;;;;;3.8;3.1;;;;;;;13.27;82.08105;95520.15;;;;
2022/05/28 02:41:07;;;;;;;3.8;3.1;;;;;;;13.27;82.08105;95520.15;;;;
2022/05/28 02:42:07;;;;;;;4.299999;3.45;;;;;;;13.11;81.98828;95513.2;;;;
2022/05/28 02:43:08;;;;;;;4.299999;3.45;;;;;;;13.11;81.98828;95513.2;;;;
2022/05/28 02:44:09;;;;;;;4.299999;3.45;;;;;;;13.11;81.98828;95513.2;;;;
2022/05/28 02:45:10;;;;;;;4.299999;3.45;;;;;;;13.11;81.98828;95513.2;;;;
2022/05/28 02:46:10;;;;;;;4.299999;3.45;;;;;;;13.11;81.98828;95513.2;;;;
2022/05/28 02:47:11;;;;;;;4.299999;3.45;;;;;;;13.11;81.98828;95513.2;;;;
2022/05/28 02:48:12;;;;;;;4.299999;3.45;;;;;;;13.11;81.98828;95513.2;;;;
2022/05/28 02:49:12;;;;;;;4.299999;3.45;;;;;;;13.11;81.98828;95513.2;;;;
2022/05/28 02:50:13;;;;;;;4.299999;3.45;;;;;;;13.11;81.98828;95513.2;;;;
2022/05/28 02:51:13;;;;;;;4.299999;3.45;;;;;;;13.11;81.98828;95513.2;;;;
2022/05/28 02:52:16;;;;;;;4.299999;3.45;;;;;;;13.11;81.98828;95513.2;;;;
2022/05/28 02:53:17;;;;;;;4.25;3.55;;;;;;;13.01;82.30371;95511.56;;;;
2022/05/28 02:54:17;;;;;;;4.25;3.55;;;;;;;13.01;82.30371;95511.56;;;;
2022/05/28 02:55:18;;;;;;;4.25;3.55;;;;;;;13.01;82.30371;95511.56;;;;
2022/05/28 02:56:19;;;;;;;4.25;3.55;;;;;;;13.01;82.30371;95511.56;;;;
2022/05/28 02:57:21;;;;;;;4.25;3.55;;;;;;;13.01;82.30371;95511.56;;;;
2022/05/28 02:58:22;;;;;;;4.25;3.55;;;;;;;13.01;82.30371;95511.56;;;;
2022/05/28 02:59:22;;;;;;;4.25;3.55;;;;;;;13.01;82.30371;95511.56;;;;
2022/05/28 03:00:23;;;;;;;4.25;3.55;;;;;;;13.01;82.30371;95511.56;;;;
2022/05/28 03:01:24;;;;;;;4.25;3.55;;;;;;;13.01;82.30371;95511.56;;;;
2022/05/28 03:02:26;;;;;;;4.25;3.55;;;;;;;13.01;82.30371;95511.56;;;;
2022/05/28 03:03:27;;;;;;;3.35;3.15;;;;;;;12.92;82.5127;95511.95;;;;
2022/05/28 03:04:28;;;;;;;3.35;3.15;;;;;;;12.92;82.5127;95511.95;;;;
2022/05/28 03:05:29;;;;;;;3.35;3.15;;;;;;;12.92;82.5127;95511.95;;;;
2022/05/28 03:06:29;;;;;;;3.35;3.15;;;;;;;12.92;82.5127;95511.95;;;;
2022/05/28 03:07:31;;;;;;;3.35;3.15;;;;;;;12.92;82.5127;95511.95;;;;
2022/05/28 03:08:31;;;;;;;3.35;3.15;;;;;;;12.92;82.5127;95511.95;;;;
2022/05/28 03:09:31;;;;;;;3.35;3.15;;;;;;;12.92;82.5127;95511.95;;;;
2022/05/28 03:10:34;;;;;;;3.35;3.15;;;;;;;12.92;82.5127;95511.95;;;;
2022/05/28 03:11:34;;;;;;;3.35;3.15;;;;;;;12.92;82.5127;95511.95;;;;
2022/05/28 03:12:37;;;;;;;3.35;3.15;;;;;;;12.92;82.5127;95511.95;;;;
2022/05/28 03:13:38;;;;;;;3.35;3.15;;;;;;;12.92;82.5127;95511.95;;;;
2022/05/28 03:14:38;;;;;;;4;3.6;;;;;;;12.96;82.53223;95517.52;;;;
2022/05/28 03:15:39;;;;;;;4;3.6;;;;;;;12.96;82.53223;95517.52;;;;
2022/05/28 03:16:42;;;;;;;4;3.6;;;;;;;12.96;82.53223;95517.52;;;;
2022/05/28 03:17:43;;;;;;;4;3.6;;;;;;;12.96;82.53223;95517.52;;;;
2022/05/28 03:18:43;;;;;;;4;3.6;;;;;;;12.96;82.53223;95517.52;;;;
2022/05/28 03:19:44;;;;;;;4;3.6;;;;;;;12.96;82.53223;95517.52;;;;
2022/05/28 03:20:44;;;;;;;4;3.6;;;;;;;12.96;82.53223;95517.52;;;;
2022/05/28 03:21:45;;;;;;;4;3.6;;;;;;;12.96;82.53223;95517.52;;;;
2022/05/28 03:22:45;;;;;;;4;3.6;;;;;;;12.96;82.53223;95517.52;;;;
2022/05/28 03:23:47;;;;;;;4;3.6;;;;;;;12.96;82.53223;95517.52;;;;
2022/05/28 03:24:48;;;;;;;5.35;4.35;;;;;;;12.89;82.5957;95511.45;;;;
2022/05/28 03:25:48;;;;;;;5.35;4.35;;;;;;;12.89;82.5957;95511.45;;;;
2022/05/28 03:26:49;;;;;;;5.35;4.35;;;;;;;12.89;82.5957;95511.45;;;;
2022/05/28 03:27:49;;;;;;;5.35;4.35;;;;;;;12.89;82.5957;95511.45;;;;
2022/05/28 03:28:50;;;;;;;5.35;4.35;;;;;;;12.89;82.5957;95511.45;;;;
2022/05/28 03:29:52;;;;;;;5.35;4.35;;;;;;;12.89;82.5957;95511.45;;;;
2022/05/28 03:30:52;;;;;;;5.35;4.35;;;;;;;12.89;82.5957;95511.45;;;;
2022/05/28 03:31:53;;;;;;;5.35;4.35;;;;;;;12.89;82.5957;95511.45;;;;
2022/05/28 03:32:53;;;;;;;5.35;4.35;;;;;;;12.89;82.5957;95511.45;;;;
2022/05/28 03:33:54;;;;;;;5.35;4.35;;;;;;;12.89;82.5957;95511.45;;;;
2022/05/28 03:34:55;;;;;;;5.35;4.35;;;;;;;12.89;82.5957;95511.45;;;;
2022/05/28 03:35:55;;;;;;;4.35;3.95;;;;;;;12.87;82.65723;95521.47;;;;
2022/05/28 03:36:56;;;;;;;4.35;3.95;;;;;;;12.87;82.65723;95521.47;;;;
2022/05/28 03:37:57;;;;;;;4.35;3.95;;;;;;;12.87;82.65723;95521.47;;;;
2022/05/28 03:38:58;;;;;;;4.35;3.95;;;;;;;12.87;82.65723;95521.47;;;;
2022/05/28 03:39:58;;;;;;;4.35;3.95;;;;;;;12.87;82.65723;95521.47;;;;
2022/05/28 03:40:59;;;;;;;4.35;3.95;;;;;;;12.87;82.65723;95521.47;;;;
2022/05/28 03:41:59;;;;;;;4.35;3.95;;;;;;;12.87;82.65723;95521.47;;;;
2022/05/28 03:43:00;;;;;;;4.35;3.95;;;;;;;12.87;82.65723;95521.47;;;;
2022/05/28 03:44:00;;;;;;;4.35;3.95;;;;;;;12.87;82.65723;95521.47;;;;
2022/05/28 03:45:01;;;;;;;4.35;3.95;;;;;;;12.87;82.65723;95521.47;;;;
2022/05/28 03:46:02;;;;;;;4.35;3.95;;;;;;;12.87;82.65723;95521.47;;;;
2022/05/28 03:47:04;;;;;;;4.7;4.15;;;;;;;12.72;82.69336;95522.77;;;;
2022/05/28 03:48:05;;;;;;;4.7;4.15;;;;;;;12.72;82.69336;95522.77;;;;
2022/05/28 03:49:10;;;;;;;4.7;4.15;;;;;;;12.72;82.69336;95522.77;;;;
2022/05/28 03:50:19;;;;;;;4.7;4.15;;;;;;;12.72;82.69336;95522.77;;;;
2022/05/28 03:51:20;;;;;;;4.7;4.15;;;;;;;12.72;82.69336;95522.77;;;;
2022/05/28 03:52:20;;;;;;;4.7;4.15;;;;;;;12.72;82.69336;95522.77;;;;
2022/05/28 03:53:21;;;;;;;4.7;4.15;;;;;;;12.72;82.69336;95522.77;;;;
2022/05/28 03:54:22;;;;;;;4.7;4.15;;;;;;;12.72;82.69336;95522.77;;;;
2022/05/28 03:55:23;;;;;;;4.7;4.15;;;;;;;12.72;82.69336;95522.77;;;;
2022/05/28 03:56:23;;;;;;;4.7;4.15;;;;;;;12.72;82.69336;95522.77;;;;
2022/05/28 03:57:31;;;;;;;5;4.299999;;;;;;;12.78;82.91992;95538.72;;;;
2022/05/28 03:58:32;;;;;;;5;4.299999;;;;;;;12.78;82.91992;95538.72;;;;
2022/05/28 03:59:34;;;;;;;5;4.299999;;;;;;;12.78;82.91992;95538.72;;;;
2022/05/28 04:00:34;;;;;;;5;4.299999;;;;;;;12.78;82.91992;95538.72;;;;
2022/05/28 04:01:35;;;;;;;5;4.299999;;;;;;;12.78;82.91992;95538.72;;;;
2022/05/28 04:02:37;;;;;;;5;4.299999;;;;;;;12.78;82.91992;95538.72;;;;
2022/05/28 04:03:37;;;;;;;5;4.299999;;;;;;;12.78;82.91992;95538.72;;;;
2022/05/28 04:04:38;;;;;;;5;4.299999;;;;;;;12.78;82.91992;95538.72;;;;
2022/05/28 04:05:38;;;;;;;5;4.299999;;;;;;;12.78;82.91992;95538.72;;;;
2022/05/28 04:06:39;;;;;;;5;4.299999;;;;;;;12.78;82.91992;95538.72;;;;
2022/05/28 04:07:40;;;;;;;4.45;4.05;;;;;;;12.77;82.73535;95545.98;;;;
2022/05/28 04:08:41;;;;;;;4.45;4.05;;;;;;;12.77;82.73535;95545.98;;;;
2022/05/28 04:09:41;;;;;;;4.45;4.05;;;;;;;12.77;82.73535;95545.98;;;;
2022/05/28 04:10:42;;;;;;;4.45;4.05;;;;;;;12.77;82.73535;95545.98;;;;
2022/05/28 04:11:42;;;;;;;4.45;4.05;;;;;;;12.77;82.73535;95545.98;;;;
2022/05/28 04:12:43;;;;;;;4.45;4.05;;;;;;;12.77;82.73535;95545.98;;;;
2022/05/28 04:13:44;;;;;;;4.45;4.05;;;;;;;12.77;82.73535;95545.98;;;;
2022/05/28 04:14:44;;;;;;;4.45;4.05;;;;;;;12.77;82.73535;95545.98;;;;
2022/05/28 04:15:45;;;;;;;4.45;4.05;;;;;;;12.77;82.73535;95545.98;;;;
2022/05/28 04:16:48;;;;;;;4.45;4.05;;;;;;;12.77;82.73535;95545.98;;;;
2022/05/28 04:17:49;;;;;;;4.45;4.05;;;;;;;12.77;82.73535;95545.98;;;;
2022/05/28 04:18:49;;;;;;;7.600001;4.149999;;;;;;;12.78;82.85547;95553.81;;;;
2022/05/28 04:19:50;;;;;;;7.600001;4.149999;;;;;;;12.78;82.85547;95553.81;;;;
2022/05/28 04:20:51;;;;;;;7.600001;4.149999;;;;;;;12.78;82.85547;95553.81;;;;
2022/05/28 04:21:52;;;;;;;7.600001;4.149999;;;;;;;12.78;82.85547;95553.81;;;;
2022/05/28 04:22:52;;;;;;;7.600001;4.149999;;;;;;;12.78;82.85547;95553.81;;;;
2022/05/28 04:23:53;;;;;;;7.600001;4.149999;;;;;;;12.78;82.85547;95553.81;;;;
2022/05/28 04:24:53;;;;;;;7.600001;4.149999;;;;;;;12.78;82.85547;95553.81;;;;
2022/05/28 04:25:54;;;;;;;7.600001;4.149999;;;;;;;12.78;82.85547;95553.81;;;;
2022/05/28 04:26:54;;;;;;;7.600001;4.149999;;;;;;;12.78;82.85547;95553.81;;;;
2022/05/28 04:27:55;;;;;;;7.600001;4.149999;;;;;;;12.78;82.85547;95553.81;;;;
2022/05/28 04:28:55;;;;;;;6;4.45;;;;;;;12.87;82.87109;95553.85;;;;
2022/05/28 04:29:56;;;;;;;6;4.45;;;;;;;12.87;82.87109;95553.85;;;;
2022/05/28 04:30:58;;;;;;;6;4.45;;;;;;;12.87;82.87109;95553.85;;;;
2022/05/28 04:31:59;;;;;;;6;4.45;;;;;;;12.87;82.87109;95553.85;;;;
2022/05/28 04:32:59;;;;;;;6;4.45;;;;;;;12.87;82.87109;95553.85;;;;
2022/05/28 04:34:00;;;;;;;6;4.45;;;;;;;12.87;82.87109;95553.85;;;;
2022/05/28 04:35:00;;;;;;;6;4.45;;;;;;;12.87;82.87109;95553.85;;;;
2022/05/28 04:36:01;;;;;;;6;4.45;;;;;;;12.87;82.87109;95553.85;;;;
2022/05/28 04:37:01;;;;;;;6;4.45;;;;;;;12.87;82.87109;95553.85;;;;
2022/05/28 04:38:03;;;;;;;6;4.45;;;;;;;12.87;82.87109;95553.85;;;;
2022/05/28 04:39:03;;;;;;;6;4.45;;;;;;;12.87;82.87109;95553.85;;;;
2022/05/28 04:40:04;;;;;;;8.049999;4.2;;;;;;;13.11;82.64746;95564.45;;;;
2022/05/28 04:41:06;;;;;;;8.049999;4.2;;;;;;;13.11;82.64746;95564.45;;;;
2022/05/28 04:42:06;;;;;;;8.049999;4.2;;;;;;;13.11;82.64746;95564.45;;;;
2022/05/28 04:43:07;;;;;;;8.049999;4.2;;;;;;;13.11;82.64746;95564.45;;;;
2022/05/28 04:44:07;;;;;;;8.049999;4.2;;;;;;;13.11;82.64746;95564.45;;;;
2022/05/28 04:45:08;;;;;;;8.049999;4.2;;;;;;;13.11;82.64746;95564.45;;;;
2022/05/28 04:46:09;;;;;;;8.049999;4.2;;;;;;;13.11;82.64746;95564.45;;;;
2022/05/28 04:47:09;;;;;;;8.049999;4.2;;;;;;;13.11;82.64746;95564.45;;;;
2022/05/28 04:48:10;;;;;;;8.049999;4.2;;;;;;;13.11;82.64746;95564.45;;;;
2022/05/28 04:49:11;;;;;;;8.049999;4.2;;;;;;;13.11;82.64746;95564.45;;;;
2022/05/28 04:50:11;;;;;;;6.199999;3.8;;;;;;;13.18;82.15234;95562.1;;;;
2022/05/28 04:51:12;;;;;;;6.199999;3.8;;;;;;;13.18;82.15234;95562.1;;;;
2022/05/28 04:52:13;;;;;;;6.199999;3.8;;;;;;;13.18;82.15234;95562.1;;;;
2022/05/28 04:53:13;;;;;;;6.199999;3.8;;;;;;;13.18;82.15234;95562.1;;;;
2022/05/28 04:54:14;;;;;;;6.199999;3.8;;;;;;;13.18;82.15234;95562.1;;;;
2022/05/28 04:55:14;;;;;;;6.199999;3.8;;;;;;;13.18;82.15234;95562.1;;;;
2022/05/28 04:56:14;;;;;;;6.199999;3.8;;;;;;;13.18;82.15234;95562.1;;;;
2022/05/28 04:57:15;;;;;;;6.199999;3.8;;;;;;;13.18;82.15234;95562.1;;;;
2022/05/28 04:58:16;;;;;;;6.199999;3.8;;;;;;;13.18;82.15234;95562.1;;;;
2022/05/28 04:59:16;;;;;;;6.199999;3.8;;;;;;;13.18;82.15234;95562.1;;;;
2022/05/28 05:00:17;;;;;;;6.199999;3.8;;;;;;;13.18;82.15234;95562.1;;;;
2022/05/28 05:01:20;;;;;;;6.199999;3.8;;;;;;;13.18;82.15234;95562.1;;;;
2022/05/28 05:02:23;;;;;;;6.199999;3.8;;;;;;;13.18;82.15234;95562.1;;;;
2022/05/28 05:03:24;;;;;;;6.199999;3.8;;;;;;;13.18;82.15234;95562.1;;;;
2022/05/28 05:04:24;;;;;;;6.199999;3.8;;;;;;;13.18;82.15234;95562.1;;;;
2022/05/28 05:05:26;;;;;;;6.199999;3.8;;;;;;;13.18;82.15234;95562.1;;;;
2022/05/28 05:06:26;;;;;;;6.199999;3.8;;;;;;;13.18;82.15234;95562.1;;;;
2022/05/28 05:07:27;;;;;;;6.199999;3.8;;;;;;;13.18;82.15234;95562.1;;;;
2022/05/28 05:08:27;;;;;;;6.199999;3.8;;;;;;;13.18;82.15234;95562.1;;;;
2022/05/28 05:09:28;;;;;;;6.199999;3.8;;;;;;;13.18;82.15234;95562.1;;;;
2022/05/28 05:10:28;;;;;;;6.199999;3.8;;;;;;;13.18;82.15234;95562.1;;;;
2022/05/28 05:11:29;;;;;;;6.199999;3.8;;;;;;;13.18;82.15234;95562.1;;;;
2022/05/28 05:12:30;;;;;;;6.5;4.1;;;;;;;13.04;81.09082;95555.74;;;;
2022/05/28 05:13:30;;;;;;;6.5;4.1;;;;;;;13.04;81.09082;95555.74;;;;
2022/05/28 05:14:31;;;;;;;6.5;4.1;;;;;;;13.04;81.09082;95555.74;;;;
2022/05/28 05:15:31;;;;;;;6.5;4.1;;;;;;;13.04;81.09082;95555.74;;;;
2022/05/28 05:16:32;;;;;;;6.5;4.1;;;;;;;13.04;81.09082;95555.74;;;;
2022/05/28 05:17:33;;;;;;;6.5;4.1;;;;;;;13.04;81.09082;95555.74;;;;
2022/05/28 05:18:33;;;;;;;6.5;4.1;;;;;;;13.04;81.09082;95555.74;;;;
2022/05/28 05:19:34;;;;;;;6.5;4.1;;;;;;;13.04;81.09082;95555.74;;;;
2022/05/28 05:20:35;;;;;;;6.5;4.1;;;;;;;13.04;81.09082;95555.74;;;;
2022/05/28 05:21:35;;;;;;;6.5;4.1;;;;;;;13.04;81.09082;95555.74;;;;
2022/05/28 05:22:35;;;;;;;6.3;4.199999;;;;;;;12.91;81.16406;95570.01;;;;
2022/05/28 05:23:36;;;;;;;6.3;4.199999;;;;;;;12.91;81.16406;95570.01;;;;
2022/05/28 05:24:36;;;;;;;6.3;4.199999;;;;;;;12.91;81.16406;95570.01;;;;
2022/05/28 05:25:37;;;;;;;6.3;4.199999;;;;;;;12.91;81.16406;95570.01;;;;
2022/05/28 05:26:38;;;;;;;6.3;4.199999;;;;;;;12.91;81.16406;95570.01;;;;
2022/05/28 05:27:38;;;;;;;6.3;4.199999;;;;;;;12.91;81.16406;95570.01;;;;
2022/05/28 05:28:39;;;;;;;6.3;4.199999;;;;;;;12.91;81.16406;95570.01;;;;
2022/05/28 05:29:39;;;;;;;6.3;4.199999;;;;;;;12.91;81.16406;95570.01;;;;
2022/05/28 05:30:40;;;;;;;6.3;4.199999;;;;;;;12.91;81.16406;95570.01;;;;
2022/05/28 05:31:42;;;;;;;6.3;4.199999;;;;;;;12.91;81.16406;95570.01;;;;
2022/05/28 05:32:42;;;;;;;6.3;4.199999;;;;;;;12.91;81.16406;95570.01;;;;
2022/05/28 05:33:43;;;;;;;6.499999;3.7;;;;;;;13.23;80.86621;95574.2;;;;
2022/05/28 05:34:45;;;;;;;6.499999;3.7;;;;;;;13.23;80.86621;95574.2;;;;
2022/05/28 05:35:45;;;;;;;6.499999;3.7;;;;;;;13.23;80.86621;95574.2;;;;
2022/05/28 05:36:46;;;;;;;6.499999;3.7;;;;;;;13.23;80.86621;95574.2;;;;
2022/05/28 05:37:46;;;;;;;6.499999;3.7;;;;;;;13.23;80.86621;95574.2;;;;
2022/05/28 05:38:47;;;;;;;6.499999;3.7;;;;;;;13.23;80.86621;95574.2;;;;
2022/05/28 05:39:47;;;;;;;6.499999;3.7;;;;;;;13.23;80.86621;95574.2;;;;
2022/05/28 05:40:48;;;;;;;6.499999;3.7;;;;;;;13.23;80.86621;95574.2;;;;
2022/05/28 05:41:51;;;;;;;6.499999;3.7;;;;;;;13.23;80.86621;95574.2;;;;
2022/05/28 05:42:52;;;;;;;6.499999;3.7;;;;;;;13.23;80.86621;95574.2;;;;
2022/05/28 05:43:53;;;;;;;8.2;3.65;;;;;;;13.74;79.7168;95573.71;;;;
2022/05/28 05:44:53;;;;;;;8.2;3.65;;;;;;;13.74;79.7168;95573.71;;;;
2022/05/28 05:45:54;;;;;;;8.2;3.65;;;;;;;13.74;79.7168;95573.71;;;;
2022/05/28 05:46:57;;;;;;;8.2;3.65;;;;;;;13.74;79.7168;95573.71;;;;
2022/05/28 05:47:57;;;;;;;8.2;3.65;;;;;;;13.74;79.7168;95573.71;;;;
2022/05/28 05:48:58;;;;;;;8.2;3.65;;;;;;;13.74;79.7168;95573.71;;;;
2022/05/28 05:49:59;;;;;;;8.2;3.65;;;;;;;13.74;79.7168;95573.71;;;;
2022/05/28 05:51:00;;;;;;;8.2;3.65;;;;;;;13.74;79.7168;95573.71;;;;